createdAt,value
2017-06-17T16:48:08.974Z,12.27
2017-06-17T16:50:36.514Z,11.90
2017-06-17T16:53:04.023Z,12.50
2017-06-17T16:55:31.566Z,11.83
2017-06-17T16:57:59.162Z,12.00
2017-06-17T17:00:26.674Z,11.70
2017-06-17T17:02:54.203Z,12.47
2017-06-17T17:05:21.716Z,10.60
2017-06-17T17:07:49.257Z,11.80
2017-06-17T17:10:16.798Z,10.47
2017-06-17T17:12:44.326Z,10.83
2017-06-17T17:15:11.830Z,12.60
2017-06-17T17:17:39.367Z,9.00
2017-06-17T17:20:06.877Z,10.10
2017-06-17T17:22:34.445Z,9.27
2017-06-17T17:25:01.970Z,9.13
2017-06-17T17:27:29.487Z,8.33
2017-06-17T17:29:57.014Z,9.67
2017-06-17T17:32:24.546Z,9.07
2017-06-17T17:34:52.083Z,10.87
2017-06-17T17:37:19.594Z,10.27
2017-06-17T17:39:47.239Z,10.60
2017-06-17T17:42:14.802Z,10.10
2017-06-17T17:44:42.435Z,8.80
2017-06-17T17:47:10.011Z,9.30
2017-06-17T17:49:38.382Z,9.57
2017-06-17T17:52:05.979Z,9.37
2017-06-17T17:54:33.548Z,9.17
2017-06-17T17:57:01.081Z,9.70
2017-06-17T17:59:28.612Z,8.87
2017-06-17T18:01:56.119Z,8.57
2017-06-17T18:04:23.667Z,8.63
2017-06-17T18:06:51.198Z,10.03
2017-06-17T18:09:18.830Z,8.30
2017-06-17T18:11:46.507Z,8.63
2017-06-17T18:14:14.160Z,9.10
2017-06-17T18:16:41.718Z,9.67
2017-06-17T18:19:09.257Z,9.77
2017-06-17T18:21:36.816Z,9.00
2017-06-17T18:24:04.418Z,9.13
2017-06-17T18:26:32.339Z,9.07
2017-06-17T18:28:59.922Z,9.07
2017-06-17T18:31:27.463Z,10.17
2017-06-17T18:33:55.071Z,10.33
2017-06-17T18:36:22.595Z,10.33
2017-06-17T18:38:50.146Z,10.03
2017-06-17T18:41:17.679Z,9.10
2017-06-17T18:43:45.213Z,8.93
2017-06-17T18:46:12.734Z,9.20
2017-06-17T18:48:40.273Z,12.60
2017-06-17T18:51:09.014Z,9.47
2017-06-17T18:53:36.567Z,8.33
2017-06-17T18:56:04.101Z,9.87
2017-06-17T18:58:31.670Z,9.07
2017-06-17T19:00:59.605Z,10.37
2017-06-17T19:03:27.159Z,9.10
2017-06-17T19:05:54.715Z,8.97
2017-06-17T19:08:22.338Z,9.47
2017-06-17T19:10:49.863Z,8.50
2017-06-17T19:13:17.384Z,9.63
2017-06-17T19:15:44.929Z,9.60
2017-06-17T19:18:12.435Z,9.00
2017-06-17T19:20:39.962Z,8.60
2017-06-17T19:23:07.519Z,9.67
2017-06-17T19:25:35.042Z,8.90
2017-06-17T19:28:02.577Z,8.77
2017-06-17T19:30:30.091Z,9.80
2017-06-17T19:32:57.639Z,10.10
2017-06-17T19:35:25.155Z,9.00
2017-06-17T19:37:53.093Z,7.83
2017-06-17T19:40:20.602Z,8.50
2017-06-17T19:42:48.111Z,9.50
2017-06-17T19:45:15.642Z,8.67
2017-06-17T19:47:43.248Z,9.40
2017-06-17T19:50:11.180Z,9.77
2017-06-17T19:52:38.780Z,10.57
2017-06-17T19:55:06.349Z,9.33
2017-06-17T19:57:34.942Z,9.47
2017-06-17T20:00:02.512Z,8.87
2017-06-17T20:02:30.217Z,8.87
2017-06-17T20:04:57.821Z,8.63
2017-06-17T20:07:25.369Z,9.80
2017-06-17T20:09:52.928Z,8.73
2017-06-17T20:12:20.464Z,10.50
2017-06-17T20:14:47.973Z,9.73
2017-06-17T20:17:15.526Z,9.70
2017-06-17T20:19:43.051Z,10.30
2017-06-17T20:22:16.790Z,10.27
2017-06-17T20:24:44.299Z,10.20
2017-06-17T20:27:11.810Z,10.03
2017-06-17T20:29:40.385Z,10.23
2017-06-17T20:32:07.905Z,9.77
2017-06-17T20:34:35.915Z,9.47
2017-06-17T20:37:03.545Z,10.53
2017-06-17T20:39:31.084Z,9.63
2017-06-17T20:41:58.658Z,8.90
2017-06-17T20:44:26.194Z,9.80
2017-06-17T20:46:54.130Z,9.87
2017-06-17T20:49:21.639Z,9.40
2017-06-17T20:51:49.616Z,9.13
2017-06-17T20:54:17.133Z,9.40
2017-06-17T20:56:44.667Z,8.90
2017-06-17T20:59:12.217Z,8.20
2017-06-17T21:01:39.781Z,9.33
2017-06-17T21:04:08.432Z,9.00
2017-06-17T21:06:35.974Z,9.40
2017-06-17T21:09:03.522Z,10.03
2017-06-17T21:11:31.033Z,9.33
2017-06-17T21:13:58.554Z,10.77
2017-06-17T21:16:26.490Z,10.00
2017-06-17T21:18:54.005Z,11.00
2017-06-17T21:21:21.531Z,9.47
2017-06-17T21:23:49.494Z,10.13
2017-06-17T21:26:17.051Z,9.90
2017-06-17T21:28:44.575Z,11.20
2017-06-17T21:31:12.099Z,10.63
2017-06-17T21:33:39.659Z,10.90
2017-06-17T21:36:07.181Z,12.00
2017-06-17T21:38:34.772Z,12.37
2017-06-17T21:41:02.342Z,11.63
2017-06-17T21:43:29.887Z,11.70
2017-06-17T21:45:57.412Z,11.67
2017-06-17T21:48:24.969Z,12.27
2017-06-17T21:50:52.481Z,11.93
2017-06-17T21:53:20.005Z,12.40
2017-06-17T21:55:47.926Z,12.40
2017-06-17T21:58:15.429Z,11.60
2017-06-17T22:00:42.961Z,11.73
2017-06-17T22:03:10.482Z,11.77
2017-06-17T22:05:38.013Z,11.10
2017-06-17T22:08:05.535Z,12.40
2017-06-17T22:10:33.502Z,10.67
2017-06-17T22:13:01.023Z,9.93
2017-06-17T22:15:28.546Z,12.83
2017-06-17T22:17:56.081Z,10.93
2017-06-17T22:20:23.610Z,11.50
2017-06-17T22:22:51.162Z,12.93
2017-06-17T22:25:18.689Z,11.27
2017-06-17T22:27:46.233Z,10.63
2017-06-17T22:30:13.765Z,11.23
2017-06-17T22:32:41.345Z,10.93
2017-06-17T22:35:10.171Z,10.60
2017-06-17T22:37:38.753Z,10.10
2017-06-17T22:40:06.315Z,10.33
2017-06-17T22:42:33.832Z,11.37
2017-06-17T22:45:01.810Z,11.97
2017-06-17T22:47:29.334Z,11.10
2017-06-17T22:49:56.875Z,11.87
2017-06-17T22:52:24.402Z,11.83
2017-06-17T22:54:51.942Z,12.10
2017-06-17T22:57:19.474Z,11.63
2017-06-17T22:59:47.037Z,10.43
2017-06-17T23:02:14.583Z,11.40
2017-06-17T23:04:42.098Z,10.97
2017-06-17T23:07:09.639Z,12.83
2017-06-17T23:09:37.162Z,10.93
2017-06-17T23:12:04.702Z,12.50
2017-06-17T23:14:32.234Z,10.93
2017-06-17T23:16:59.801Z,11.73
2017-06-17T23:19:27.342Z,11.73
2017-06-17T23:21:54.858Z,11.53
2017-06-17T23:24:22.395Z,11.40
2017-06-17T23:26:49.925Z,11.90
2017-06-17T23:29:17.472Z,10.13
2017-06-17T23:31:44.995Z,11.10
2017-06-17T23:34:12.549Z,10.90
2017-06-17T23:36:40.506Z,11.10
2017-06-17T23:39:08.086Z,11.50
2017-06-17T23:41:36.009Z,11.80
2017-06-17T23:44:03.529Z,11.70
2017-06-17T23:46:31.074Z,12.20
2017-06-17T23:48:58.619Z,12.57
2017-06-17T23:51:26.165Z,12.23
2017-06-17T23:53:53.671Z,11.87
2017-06-17T23:56:21.205Z,11.40
2017-06-17T23:58:48.730Z,10.80
